Time;durP1;ratioP1;P1;durP2;ratioP2;P2;SDS_P1;SDS_P2;PMS_P1;PMS_P2;Temp;Humidity;BMP_temperature;BMP_pressure;BME280_temperature;BME280_humidity;BME280_pressure;Samples;Min_cycle;Max_cycle;Signal;HPM_P1;HPM_P2
2022/03/25 00:01:09;;;;;;;64.65;32.22;;;6.20;88.60;;;;;;4991772;28;20026;-57
2022/03/25 00:03:34;;;;;;;62.78;32.65;;;6.20;88.90;;;;;;4990991;28;20062;-61
2022/03/25 00:06:00;;;;;;;56.28;30.33;;;6.20;89.80;;;;;;4993264;28;20023;-58
2022/03/25 00:08:26;;;;;;;66.93;32.40;;;6.20;89.10;;;;;;4988671;28;20027;-57
2022/03/25 00:10:52;;;;;;;63.65;30.45;;;6.20;89.20;;;;;;4988989;28;20022;-56
2022/03/25 00:13:18;;;;;;;58.10;30.27;;;6.20;89.40;;;;;;4989012;28;20552;-59
2022/03/25 00:15:44;;;;;;;64.63;31.63;;;6.10;89.70;;;;;;4989446;28;20100;-57
2022/03/25 00:18:09;;;;;;;59.40;31.45;;;6.00;89.90;;;;;;4990895;28;20018;-57
2022/03/25 00:20:35;;;;;;;62.88;31.50;;;6.00;90.00;;;;;;4987809;28;20425;-55
2022/03/25 00:23:01;;;;;;;59.67;31.17;;;6.00;90.30;;;;;;4995785;28;20019;-57
2022/03/25 00:25:28;;;;;;;62.78;30.65;;;6.00;90.40;;;;;;4988319;28;20576;-58
2022/03/25 00:27:53;;;;;;;58.47;30.38;;;6.00;90.60;;;;;;4991361;28;20109;-58
2022/03/25 00:30:19;;;;;;;63.42;30.17;;;5.90;90.70;;;;;;4975770;28;20138;-54
2022/03/25 00:32:45;;;;;;;60.70;31.17;;;5.90;91.10;;;;;;4990787;28;20093;-55
2022/03/25 00:35:10;;;;;;;62.33;31.20;;;5.80;91.20;;;;;;4990654;28;20532;-53
2022/03/25 00:37:36;;;;;;;58.85;30.58;;;5.80;91.50;;;;;;4988254;28;20056;-59
2022/03/25 00:40:02;;;;;;;59.70;30.73;;;5.70;91.50;;;;;;4990180;28;20026;-60
2022/03/25 00:42:29;;;;;;;57.60;30.17;;;5.70;91.70;;;;;;4989454;28;20026;-56
2022/03/25 00:44:55;;;;;;;57.20;29.42;;;5.70;91.80;;;;;;4989366;28;20026;-58
2022/03/25 00:47:23;;;;;;;62.47;30.83;;;5.60;91.90;;;;;;4971213;28;20027;-58
2022/03/25 00:49:50;;;;;;;56.35;30.38;;;5.60;92.00;;;;;;4991322;28;20022;-57
2022/03/25 00:52:16;;;;;;;60.88;31.33;;;5.60;92.10;;;;;;4990237;28;20511;-57
2022/03/25 00:54:41;;;;;;;62.05;30.70;;;5.60;92.20;;;;;;4990351;28;20115;-57
2022/03/25 00:57:07;;;;;;;59.55;32.03;;;5.60;92.30;;;;;;4991187;28;20054;-58
2022/03/25 00:59:33;;;;;;;61.28;31.85;;;5.50;92.60;;;;;;4991080;28;20073;-58
2022/03/25 01:02:00;;;;;;;66.70;31.80;;;5.50;92.70;;;;;;4990340;28;20108;-57
2022/03/25 01:04:25;;;;;;;63.25;31.77;;;5.50;92.80;;;;;;4990745;28;20104;-57
2022/03/25 01:06:51;;;;;;;60.17;31.45;;;5.40;93.00;;;;;;4989947;28;20058;-59
2022/03/25 01:09:16;;;;;;;59.33;32.72;;;5.40;93.20;;;;;;4991123;28;20038;-57
2022/03/25 01:11:42;;;;;;;65.35;32.80;;;5.40;93.30;;;;;;4990457;28;20037;-56
2022/03/25 01:14:08;;;;;;;61.38;32.42;;;5.30;93.60;;;;;;4990330;28;20027;-57
2022/03/25 01:16:34;;;;;;;64.80;33.63;;;5.30;93.90;;;;;;4990956;28;20481;-55
2022/03/25 01:19:00;;;;;;;61.03;32.30;;;5.20;94.10;;;;;;4990670;28;20054;-58
2022/03/25 01:21:26;;;;;;;63.35;31.35;;;5.10;94.30;;;;;;4989610;28;20109;-58
2022/03/25 01:23:51;;;;;;;60.05;31.90;;;5.10;94.50;;;;;;4990956;28;20057;-55
2022/03/25 01:26:17;;;;;;;62.75;32.65;;;5.00;94.80;;;;;;4991184;28;20034;-57
2022/03/25 01:28:42;;;;;;;64.38;33.20;;;5.00;95.10;;;;;;4990408;28;20039;-57
2022/03/25 01:31:09;;;;;;;63.00;33.45;;;4.90;95.30;;;;;;4974756;28;20069;-55
2022/03/25 01:33:37;;;;;;;60.95;30.15;;;4.90;95.60;;;;;;4985973;28;20508;-55
2022/03/25 01:36:03;;;;;;;56.75;31.48;;;4.90;95.70;;;;;;4991240;28;20034;-56
2022/03/25 01:38:29;;;;;;;59.72;32.45;;;4.90;95.80;;;;;;4989555;28;20453;-58
2022/03/25 01:40:54;;;;;;;62.15;30.98;;;4.90;95.80;;;;;;4990688;28;20030;-54
2022/03/25 01:43:20;;;;;;;57.70;31.15;;;5.00;95.80;;;;;;4989893;28;20513;-56
2022/03/25 01:45:46;;;;;;;60.80;32.95;;;5.00;95.80;;;;;;4991287;28;20065;-56
2022/03/25 01:48:13;;;;;;;59.22;32.35;;;5.00;95.80;;;;;;4990358;28;20042;-58
2022/03/25 01:50:41;;;;;;;63.80;32.22;;;4.90;95.90;;;;;;4989277;28;20464;-56
2022/03/25 01:53:26;;;;;;;64.25;34.85;;;4.90;96.00;;;;;;4987719;28;20038;-57
2022/03/25 01:55:57;;;;;;;63.92;32.03;;;4.80;96.20;;;;;;4990622;28;20077;-59
2022/03/25 01:58:25;;;;;;;60.00;31.33;;;4.80;96.40;;;;;;4988598;28;20513;-55
2022/03/25 02:00:52;;;;;;;61.38;32.78;;;4.80;96.50;;;;;;4986329;28;20046;-58
2022/03/25 02:03:18;;;;;;;67.05;34.22;;;4.80;96.70;;;;;;4989951;28;20035;-55
2022/03/25 02:05:44;;;;;;;64.97;34.05;;;4.80;96.80;;;;;;4988940;28;20051;-58
2022/03/25 02:08:10;;;;;;;62.70;32.05;;;4.80;96.90;;;;;;4992907;28;20263;-58
2022/03/25 02:10:38;;;;;;;58.65;32.90;;;4.80;97.10;;;;;;4993990;28;20085;-56
2022/03/25 02:13:04;;;;;;;56.58;30.48;;;4.70;97.30;;;;;;4993667;28;20053;-55
2022/03/25 02:15:34;;;;;;;56.45;30.77;;;4.70;97.30;;;;;;4993806;28;20033;-57
2022/03/25 02:18:08;;;;;;;59.45;32.45;;;4.70;97.50;;;;;;4991662;28;20168;-54
2022/03/25 02:20:34;;;;;;;63.47;31.40;;;4.60;97.60;;;;;;4998287;28;20058;-56
2022/03/25 02:23:01;;;;;;;64.50;33.63;;;4.70;97.70;;;;;;4992799;28;20046;-52
2022/03/25 02:25:29;;;;;;;71.00;35.45;;;4.70;97.70;;;;;;4995768;28;20034;-59
2022/03/25 02:27:56;;;;;;;58.80;31.90;;;4.60;97.90;;;;;;4992232;28;20573;-58
2022/03/25 02:30:21;;;;;;;61.95;33.08;;;4.60;98.00;;;;;;4992823;28;20371;-58
2022/03/25 02:32:47;;;;;;;58.10;30.92;;;4.60;98.30;;;;;;4976781;28;20061;-56
2022/03/25 02:35:12;;;;;;;58.75;30.92;;;4.50;98.40;;;;;;5011962;28;20584;-57
2022/03/25 02:37:38;;;;;;;63.05;34.00;;;4.50;98.60;;;;;;5003397;28;20370;-56
2022/03/25 02:40:04;;;;;;;60.42;32.00;;;4.50;98.70;;;;;;4994094;28;20503;-57
2022/03/25 02:42:30;;;;;;;60.88;31.17;;;4.50;98.70;;;;;;4993074;28;20026;-58
2022/03/25 02:44:55;;;;;;;57.20;30.98;;;4.50;98.80;;;;;;4990986;28;20033;-56
2022/03/25 02:47:21;;;;;;;62.08;31.20;;;4.40;98.90;;;;;;4993324;28;20104;-56
2022/03/25 02:49:46;;;;;;;66.93;33.17;;;4.40;99.00;;;;;;4993028;28;20026;-57
2022/03/25 02:52:12;;;;;;;69.28;33.17;;;4.30;99.10;;;;;;4992656;28;20027;-59
2022/03/25 02:54:38;;;;;;;62.85;32.97;;;4.20;99.20;;;;;;4992379;28;20034;-57
2022/03/25 02:57:04;;;;;;;61.92;33.17;;;4.10;99.70;;;;;;4993918;28;20452;-55
2022/03/25 02:59:30;;;;;;;66.95;33.70;;;4.10;99.90;;;;;;4992555;28;20049;-57
2022/03/25 03:01:55;;;;;;;51.97;30.83;;;4.00;99.90;;;;;;4993193;28;20441;-56
2022/03/25 03:04:21;;;;;;;62.22;33.17;;;4.00;99.90;;;;;;4993286;28;20104;-58
2022/03/25 03:06:46;;;;;;;56.45;32.47;;;3.90;99.90;;;;;;4992851;28;20030;-56
2022/03/25 03:09:12;;;;;;;61.33;33.50;;;3.90;99.90;;;;;;4992823;28;20037;-55
2022/03/25 03:11:38;;;;;;;61.28;32.92;;;3.80;99.90;;;;;;4993217;28;20022;-59
2022/03/25 03:14:04;;;;;;;56.55;31.27;;;3.80;99.90;;;;;;4990689;28;20080;-57
2022/03/25 03:16:30;;;;;;;62.50;32.22;;;3.80;99.90;;;;;;4993115;28;20027;-55
2022/03/25 03:18:55;;;;;;;64.13;33.70;;;3.70;99.90;;;;;;4991922;28;20030;-58
2022/03/25 03:21:24;;;;;;;63.08;33.35;;;3.70;99.90;;;;;;4993158;28;20026;-56
2022/03/25 03:23:51;;;;;;;66.60;32.53;;;3.70;99.90;;;;;;4992257;28;20033;-55
2022/03/25 03:26:20;;;;;;;64.43;32.83;;;3.70;99.90;;;;;;4993470;28;20022;-56
2022/03/25 03:28:46;;;;;;;62.95;33.17;;;3.70;99.90;;;;;;4992186;28;20054;-57
2022/03/25 03:31:12;;;;;;;60.35;32.80;;;3.70;99.90;;;;;;4992823;28;20077;-56
2022/03/25 03:33:38;;;;;;;58.72;31.90;;;3.70;99.90;;;;;;4974761;28;20330;-54
2022/03/25 03:36:04;;;;;;;66.53;32.58;;;3.70;99.90;;;;;;4991706;28;20026;-53
2022/03/25 03:38:30;;;;;;;62.88;34.38;;;3.60;99.90;;;;;;4992513;28;20090;-53
2022/03/25 03:40:55;;;;;;;64.68;34.50;;;3.60;99.90;;;;;;4992491;28;20030;-57
2022/03/25 03:43:21;;;;;;;67.65;34.85;;;3.60;99.90;;;;;;4992362;28;20069;-55
2022/03/25 03:45:47;;;;;;;66.25;34.35;;;3.50;99.90;;;;;;4992114;28;20030;-55
2022/03/25 03:48:12;;;;;;;60.20;33.20;;;3.50;99.90;;;;;;4992363;28;20040;-57
2022/03/25 03:50:38;;;;;;;67.05;33.63;;;3.40;99.90;;;;;;4992269;28;20030;-51
2022/03/25 03:53:04;;;;;;;64.93;32.00;;;3.40;99.90;;;;;;4991884;28;20034;-57
2022/03/25 03:55:30;;;;;;;58.63;31.90;;;3.40;99.90;;;;;;4992017;28;20477;-55
2022/03/25 03:57:56;;;;;;;60.33;33.25;;;3.40;99.90;;;;;;4990522;28;20031;-56
2022/03/25 04:00:24;;;;;;;60.55;32.33;;;3.30;99.90;;;;;;4992089;28;20394;-55
2022/03/25 04:02:50;;;;;;;57.55;31.67;;;3.40;99.90;;;;;;4990301;28;20080;-58
2022/03/25 04:05:16;;;;;;;55.65;30.20;;;3.30;99.90;;;;;;4992046;28;20030;-55
2022/03/25 04:07:44;;;;;;;57.42;31.55;;;3.30;99.90;;;;;;4991866;28;20109;-56
2022/03/25 04:10:10;;;;;;;55.63;30.83;;;3.30;99.90;;;;;;4992043;28;20061;-58
2022/03/25 04:12:35;;;;;;;59.47;31.42;;;3.30;99.90;;;;;;4991612;28;20026;-56
2022/03/25 04:15:02;;;;;;;60.28;31.95;;;3.20;99.90;;;;;;4991258;28;20019;-53
2022/03/25 04:17:28;;;;;;;58.20;31.73;;;3.10;99.90;;;;;;4991907;28;20026;-57
2022/03/25 04:19:53;;;;;;;56.30;29.45;;;3.00;99.90;;;;;;4991821;28;20029;-52
2022/03/25 04:22:19;;;;;;;69.15;31.10;;;3.00;99.90;;;;;;4991537;28;20030;-57
2022/03/25 04:24:44;;;;;;;60.55;32.13;;;2.90;99.90;;;;;;4989706;28;20026;-58
2022/03/25 04:27:10;;;;;;;63.55;33.17;;;2.90;99.90;;;;;;4991539;28;20139;-57
2022/03/25 04:29:36;;;;;;;60.75;32.88;;;2.90;99.90;;;;;;4990989;28;20481;-57
2022/03/25 04:32:01;;;;;;;59.05;30.33;;;2.90;99.90;;;;;;4990451;28;20041;-58
2022/03/25 04:34:27;;;;;;;64.63;32.72;;;3.00;99.90;;;;;;4975315;28;20061;-58
2022/03/25 04:36:53;;;;;;;60.40;31.38;;;3.00;99.90;;;;;;4991946;28;20057;-54
2022/03/25 04:39:18;;;;;;;58.28;31.23;;;3.00;99.90;;;;;;4990798;28;20045;-56
2022/03/25 04:41:44;;;;;;;61.03;32.47;;;2.90;99.90;;;;;;4991342;28;20030;-55
2022/03/25 04:44:09;;;;;;;66.70;31.38;;;3.00;99.90;;;;;;4991066;28;20393;-57
2022/03/25 04:46:35;;;;;;;63.05;31.75;;;2.90;99.90;;;;;;4991124;28;20436;-55
2022/03/25 04:49:00;;;;;;;65.30;32.13;;;2.90;99.90;;;;;;4990220;28;20029;-60
2022/03/25 04:51:26;;;;;;;63.15;33.30;;;2.90;99.90;;;;;;4990398;28;20018;-59
2022/03/25 04:53:51;;;;;;;62.38;33.15;;;2.80;99.90;;;;;;4989754;28;20375;-60
2022/03/25 04:56:18;;;;;;;67.45;33.75;;;2.80;99.90;;;;;;4990728;28;20431;-59
2022/03/25 04:58:44;;;;;;;65.78;32.85;;;2.80;99.90;;;;;;4991048;28;20393;-56
2022/03/25 05:01:09;;;;;;;66.13;33.92;;;2.70;99.90;;;;;;4989144;28;20026;-58
2022/03/25 05:03:35;;;;;;;58.30;31.98;;;2.70;99.90;;;;;;4990519;28;20037;-58
2022/03/25 05:06:00;;;;;;;66.55;32.92;;;2.70;99.90;;;;;;4990543;28;20038;-59
2022/03/25 05:08:26;;;;;;;68.55;35.03;;;2.60;99.90;;;;;;4991005;28;20573;-57
2022/03/25 05:10:52;;;;;;;64.95;32.65;;;2.60;99.90;;;;;;4990919;28;20390;-57
2022/03/25 05:13:18;;;;;;;63.13;30.67;;;2.60;99.90;;;;;;4990421;28;20395;-54
2022/03/25 05:15:43;;;;;;;60.40;31.13;;;2.70;99.90;;;;;;4990648;28;20018;-57
2022/03/25 05:18:09;;;;;;;59.15;31.67;;;2.70;99.90;;;;;;4990947;28;20033;-53
2022/03/25 05:20:35;;;;;;;63.10;33.47;;;2.60;99.90;;;;;;4991741;28;20026;-58
2022/03/25 05:23:00;;;;;;;60.38;30.83;;;2.60;99.90;;;;;;4989777;28;20089;-57
2022/03/25 05:25:26;;;;;;;63.67;31.02;;;2.60;99.90;;;;;;4989675;28;20042;-59
2022/03/25 05:27:54;;;;;;;60.85;28.92;;;2.50;99.90;;;;;;4989570;28;20057;-58
2022/03/25 05:30:21;;;;;;;53.15;30.20;;;2.60;99.90;;;;;;4990629;28;20030;-57
2022/03/25 05:32:47;;;;;;;62.92;35.10;;;2.60;99.90;;;;;;4990569;28;20109;-57
2022/03/25 05:35:13;;;;;;;64.43;32.88;;;2.70;99.90;;;;;;4976191;28;20561;-59
2022/03/25 05:37:39;;;;;;;58.08;30.88;;;2.80;99.90;;;;;;4990594;28;20022;-59
2022/03/25 05:40:06;;;;;;;59.15;29.27;;;2.80;99.90;;;;;;4990162;28;20034;-58
2022/03/25 05:42:32;;;;;;;54.33;29.52;;;2.80;99.90;;;;;;4993903;28;20533;-57
2022/03/25 05:44:58;;;;;;;55.75;30.48;;;2.90;99.90;;;;;;4994015;28;20022;-57
2022/03/25 05:47:24;;;;;;;54.60;29.52;;;2.90;99.90;;;;;;4993656;28;20548;-58
2022/03/25 05:49:49;;;;;;;56.88;30.75;;;3.00;99.90;;;;;;4993509;28;20397;-57
2022/03/25 05:52:15;;;;;;;63.53;31.63;;;3.00;99.90;;;;;;4993427;28;20087;-57
2022/03/25 05:54:40;;;;;;;59.65;33.70;;;3.10;99.90;;;;;;4993712;28;20030;-58
2022/03/25 05:57:06;;;;;;;58.83;31.55;;;3.10;99.90;;;;;;4993900;28;20101;-58
2022/03/25 05:59:32;;;;;;;59.65;33.38;;;3.10;99.90;;;;;;4992724;28;20077;-58
2022/03/25 06:01:57;;;;;;;57.20;29.98;;;3.10;99.90;;;;;;4993113;28;20056;-60
2022/03/25 06:04:23;;;;;;;62.50;33.70;;;3.30;99.90;;;;;;4993997;28;20523;-58
2022/03/25 06:06:49;;;;;;;54.08;28.88;;;3.40;99.90;;;;;;4992981;28;20291;-56
2022/03/25 06:09:14;;;;;;;52.65;30.38;;;3.70;99.90;;;;;;4993902;28;20041;-60
2022/03/25 06:11:40;;;;;;;53.22;30.05;;;3.90;99.90;;;;;;4993303;28;20038;-60
2022/03/25 06:14:05;;;;;;;50.38;27.95;;;4.20;99.90;;;;;;4993047;28;20026;-57
2022/03/25 06:16:31;;;;;;;49.72;26.35;;;4.50;99.90;;;;;;4994100;28;20026;-60
2022/03/25 06:18:57;;;;;;;49.95;28.05;;;5.00;99.90;;;;;;4993853;28;20031;-60
2022/03/25 06:21:22;;;;;;;47.05;25.48;;;5.40;99.90;;;;;;4992989;28;20023;-57
2022/03/25 06:23:48;;;;;;;49.00;27.27;;;5.80;99.80;;;;;;4993368;28;20034;-59
2022/03/25 06:26:14;;;;;;;46.72;27.05;;;6.10;98.70;;;;;;4993805;28;20464;-59
2022/03/25 06:28:39;;;;;;;48.28;27.25;;;6.40;97.40;;;;;;4991926;28;20473;-60
2022/03/25 06:31:05;;;;;;;49.22;28.10;;;6.70;96.80;;;;;;4992823;28;20416;-56
2022/03/25 06:33:30;;;;;;;44.83;27.17;;;6.70;96.30;;;;;;4993111;28;20038;-59
2022/03/25 06:35:56;;;;;;;42.63;26.40;;;6.70;96.80;;;;;;4977719;28;20087;-59
2022/03/25 06:38:22;;;;;;;43.88;28.25;;;6.50;96.30;;;;;;4992400;28;20037;-60
2022/03/25 06:40:47;;;;;;;51.35;28.33;;;6.30;97.10;;;;;;4992831;28;20033;-57
2022/03/25 06:43:13;;;;;;;47.63;28.45;;;6.20;97.50;;;;;;4993048;28;20164;-59
2022/03/25 06:45:39;;;;;;;39.88;25.08;;;6.30;97.50;;;;;;4993045;28;20077;-61
2022/03/25 06:48:04;;;;;;;46.00;26.45;;;6.70;97.30;;;;;;4993491;28;20383;-57
2022/03/25 06:50:30;;;;;;;41.50;25.65;;;7.20;96.40;;;;;;4993178;28;20034;-59
2022/03/25 06:52:57;;;;;;;43.63;26.38;;;7.60;95.20;;;;;;4991823;28;20034;-59
2022/03/25 06:55:23;;;;;;;41.05;24.40;;;8.10;94.10;;;;;;4993085;28;20061;-58
2022/03/25 06:57:50;;;;;;;42.20;25.30;;;8.80;93.80;;;;;;4992587;28;20053;-58
2022/03/25 07:00:17;;;;;;;42.90;25.17;;;9.70;92.10;;;;;;4991939;28;20030;-59
2022/03/25 07:02:43;;;;;;;41.35;25.95;;;10.80;90.40;;;;;;4992435;28;20022;-59
2022/03/25 07:05:13;;;;;;;37.67;25.60;;;11.80;86.60;;;;;;4992931;28;20513;-60
2022/03/25 07:07:40;;;;;;;38.40;25.95;;;12.20;84.60;;;;;;4992741;28;20023;-60
2022/03/25 07:10:09;;;;;;;40.63;27.15;;;12.90;82.20;;;;;;4992805;28;20492;-60
2022/03/25 07:12:42;;;;;;;39.08;28.02;;;13.20;80.10;;;;;;4992639;28;20026;-58
2022/03/25 07:15:08;;;;;;;41.60;27.40;;;13.70;78.90;;;;;;4992847;28;20026;-61
2022/03/25 07:17:37;;;;;;;41.35;26.95;;;14.00;77.00;;;;;;4992651;28;20031;-61
2022/03/25 07:20:06;;;;;;;39.38;26.75;;;14.20;76.80;;;;;;4991777;28;20373;-60
2022/03/25 07:22:33;;;;;;;40.50;27.10;;;15.30;75.50;;;;;;4988850;28;20022;-60
2022/03/25 07:24:58;;;;;;;41.45;28.30;;;15.60;74.40;;;;;;4989287;28;20014;-57
2022/03/25 07:27:24;;;;;;;39.05;26.63;;;15.70;72.50;;;;;;4987475;28;20026;-58
2022/03/25 07:29:49;;;;;;;40.28;24.95;;;15.50;73.00;;;;;;4989476;28;20030;-57
2022/03/25 07:32:15;;;;;;;37.45;25.80;;;15.80;72.80;;;;;;4991960;28;20060;-59
2022/03/25 07:34:41;;;;;;;33.83;26.00;;;16.50;71.50;;;;;;4977059;28;20037;-58
2022/03/25 07:37:06;;;;;;;42.55;27.35;;;16.80;70.80;;;;;;4992313;28;20022;-58
2022/03/25 07:39:32;;;;;;;41.28;28.50;;;16.10;69.90;;;;;;4991853;28;20096;-58
2022/03/25 07:41:58;;;;;;;43.97;28.50;;;15.90;69.90;;;;;;4990162;28;20018;-53
2022/03/25 07:44:23;;;;;;;40.72;26.00;;;15.40;71.70;;;;;;4992746;28;20377;-56
2022/03/25 07:46:49;;;;;;;36.10;26.48;;;15.50;72.20;;;;;;4992845;28;20018;-58
2022/03/25 07:49:15;;;;;;;41.60;27.42;;;15.70;71.50;;;;;;4992303;28;20034;-59
2022/03/25 07:51:41;;;;;;;35.88;24.67;;;16.00;70.50;;;;;;4992063;28;20038;-59
2022/03/25 07:54:07;;;;;;;38.35;26.92;;;17.00;70.80;;;;;;4991840;28;20056;-57
2022/03/25 07:56:33;;;;;;;34.67;25.65;;;16.60;69.70;;;;;;4992199;28;20294;-57
2022/03/25 07:58:59;;;;;;;36.55;24.73;;;16.60;69.80;;;;;;4991400;28;20068;-49
2022/03/25 08:01:26;;;;;;;37.03;26.65;;;17.30;68.50;;;;;;4988025;28;20023;-52
2022/03/25 08:03:52;;;;;;;32.53;26.40;;;17.40;66.70;;;;;;4988841;28;20092;-58
2022/03/25 08:06:17;;;;;;;36.47;25.55;;;16.90;67.70;;;;;;4993869;28;20034;-56
2022/03/25 08:08:47;;;;;;;43.25;26.10;;;17.60;68.00;;;;;;4989888;28;20034;-55
2022/03/25 08:11:13;;;;;;;38.38;25.50;;;17.00;67.80;;;;;;4988730;28;20113;-54
2022/03/25 08:13:39;;;;;;;35.63;25.52;;;17.90;66.70;;;;;;4988607;28;20094;-51
2022/03/25 08:16:04;;;;;;;40.85;25.60;;;18.10;65.80;;;;;;4991413;28;20493;-57
2022/03/25 08:18:30;;;;;;;36.88;26.83;;;17.70;66.30;;;;;;4991575;28;20023;-52
2022/03/25 08:20:57;;;;;;;35.83;24.50;;;17.50;66.80;;;;;;4971285;28;20022;-56
2022/03/25 08:28:54;;;;;;;37.53;25.42;;;17.90;65.50;;;;;;4990003;28;20034;-55
2022/03/25 08:31:21;;;;;;;39.38;25.27;;;18.00;65.60;;;;;;4991261;28;20062;-52
2022/03/25 08:33:47;;;;;;;42.38;27.70;;;17.40;67.20;;;;;;4988769;28;20034;-56
2022/03/25 08:36:15;;;;;;;40.15;26.00;;;17.30;67.70;;;;;;4989485;28;20114;-58
2022/03/25 08:38:41;;;;;;;39.38;26.55;;;17.80;67.20;;;;;;4991799;28;20446;-57
2022/03/25 08:41:06;;;;;;;37.58;27.55;;;17.30;67.70;;;;;;4990627;28;20065;-59
2022/03/25 08:43:32;;;;;;;34.67;26.55;;;17.80;66.90;;;;;;4990694;28;20034;-59
2022/03/25 08:45:58;;;;;;;44.25;26.77;;;17.80;66.90;;;;;;4989997;28;20030;-58
2022/03/25 08:48:23;;;;;;;44.80;27.10;;;17.20;67.40;;;;;;4990393;28;20034;-58
2022/03/25 08:50:50;;;;;;;37.83;26.48;;;17.30;67.50;;;;;;4990605;28;20541;-57
2022/03/25 08:53:17;;;;;;;39.78;26.80;;;17.30;67.90;;;;;;4990617;28;20034;-56
2022/03/25 08:55:43;;;;;;;41.92;27.50;;;17.80;66.60;;;;;;4990983;28;20022;-57
2022/03/25 08:58:09;;;;;;;37.60;26.20;;;17.70;67.90;;;;;;4989925;28;20038;-57
2022/03/25 09:00:34;;;;;;;41.90;26.52;;;18.60;66.80;;;;;;4990939;28;20447;-57
2022/03/25 09:03:01;;;;;;;38.85;28.25;;;18.10;66.40;;;;;;4990211;28;20053;-60
2022/03/25 09:05:26;;;;;;;38.13;26.85;;;17.90;67.60;;;;;;4990526;28;20092;-60
2022/03/25 09:07:52;;;;;;;44.70;26.80;;;18.20;67.00;;;;;;4991159;28;20050;-58
2022/03/25 09:10:17;;;;;;;43.50;26.77;;;18.40;67.00;;;;;;4990976;28;20452;-58
2022/03/25 09:12:44;;;;;;;40.83;28.75;;;18.50;67.10;;;;;;4989661;28;20031;-55
2022/03/25 09:15:12;;;;;;;40.00;26.17;;;18.30;67.40;;;;;;4990916;28;20034;-59
2022/03/25 09:17:39;;;;;;;37.28;26.85;;;18.20;67.80;;;;;;4990443;28;20084;-58
2022/03/25 09:20:06;;;;;;;38.30;26.35;;;18.20;68.80;;;;;;4990001;28;20022;-58
2022/03/25 09:22:31;;;;;;;37.65;26.35;;;19.00;66.80;;;;;;4990702;28;20029;-59
2022/03/25 09:24:58;;;;;;;38.65;25.67;;;18.80;66.90;;;;;;4990740;28;20026;-59
2022/03/25 09:27:24;;;;;;;34.80;25.27;;;18.50;67.00;;;;;;4991026;28;20105;-60
2022/03/25 09:29:50;;;;;;;38.55;25.52;;;19.00;66.80;;;;;;4990689;28;20441;-60
2022/03/25 09:32:16;;;;;;;36.20;25.42;;;19.10;67.20;;;;;;4990899;28;20411;-61
2022/03/25 09:37:25;;;;;;;34.75;23.98;;;19.40;66.60;;;;;;4973387;28;20603;-61
2022/03/25 09:39:51;;;;;;;40.45;26.50;;;19.70;66.10;;;;;;4990509;28;20093;-60
2022/03/25 09:42:19;;;;;;;39.10;24.35;;;19.60;65.70;;;;;;4989349;28;20158;-60
2022/03/25 09:44:48;;;;;;;31.35;23.27;;;19.10;65.30;;;;;;4990233;28;20034;-57
2022/03/25 09:47:16;;;;;;;30.48;17.45;;;19.10;65.40;;;;;;4991321;28;20695;-59
2022/03/25 09:49:42;;;;;;;29.95;19.40;;;19.50;61.10;;;;;;4990747;28;20041;-58
2022/03/25 09:52:08;;;;;;;36.20;18.67;;;20.00;61.50;;;;;;4990082;28;20030;-59
2022/03/25 09:54:35;;;;;;;38.20;18.17;;;20.10;59.80;;;;;;4990002;28;20118;-59
2022/03/25 09:57:01;;;;;;;30.65;15.50;;;20.50;56.70;;;;;;4990567;28;20060;-59
2022/03/25 09:59:27;;;;;;;30.00;15.32;;;20.50;56.30;;;;;;4989481;28;20026;-61
2022/03/25 10:01:53;;;;;;;24.50;14.88;;;21.10;54.30;;;;;;4989486;28;20100;-59
2022/03/25 10:04:37;;;;;;;30.48;15.40;;;21.00;54.50;;;;;;4986211;28;20035;-60
2022/03/25 10:07:19;;;;;;;27.98;12.27;;;20.80;55.20;;;;;;4986504;28;21859;-60
2022/03/25 10:09:47;;;;;;;21.17;12.27;;;20.20;54.10;;;;;;4986397;28;20049;-60
2022/03/25 10:12:23;;;;;;;20.33;11.10;;;20.40;53.50;;;;;;4990022;28;20026;-58
2022/03/25 10:14:51;;;;;;;28.75;10.95;;;20.30;54.10;;;;;;4987815;28;20031;-58
2022/03/25 10:17:17;;;;;;;18.60;10.13;;;20.60;51.40;;;;;;4990715;28;20097;-60
2022/03/25 10:19:48;;;;;;;25.50;10.35;;;20.50;51.80;;;;;;4984800;28;20027;-59
2022/03/25 10:22:16;;;;;;;18.45;9.07;;;20.50;52.90;;;;;;4990201;28;20037;-57
2022/03/25 10:24:48;;;;;;;24.20;11.20;;;19.90;51.70;;;;;;4989286;28;20026;-55
2022/03/25 10:27:19;;;;;;;30.88;11.55;;;19.20;52.90;;;;;;4988604;28;20089;-62
2022/03/25 10:29:46;;;;;;;18.10;9.30;;;19.10;52.60;;;;;;4990024;28;20437;-57
2022/03/25 10:32:15;;;;;;;21.10;10.38;;;18.80;52.50;;;;;;4991973;28;20102;-57
2022/03/25 10:34:42;;;;;;;18.35;8.85;;;18.80;53.00;;;;;;4984399;28;20023;-57
2022/03/25 10:37:11;;;;;;;25.52;9.50;;;18.90;54.10;;;;;;4975423;28;20537;-59
2022/03/25 10:39:37;;;;;;;22.40;8.95;;;18.60;53.00;;;;;;4991902;28;20069;-58
2022/03/25 10:42:04;;;;;;;19.13;8.05;;;18.50;52.80;;;;;;4990858;28;20018;-58
2022/03/25 10:44:42;;;;;;;25.60;8.52;;;18.30;53.10;;;;;;4990899;28;20037;-58
2022/03/25 10:47:24;;;;;;;16.80;7.50;;;18.10;51.60;;;;;;4990381;28;20034;-55
2022/03/25 10:49:52;;;;;;;20.33;8.32;;;17.90;51.90;;;;;;4990121;28;20398;-58
2022/03/25 10:52:24;;;;;;;22.15;8.88;;;17.60;51.60;;;;;;4991333;28;20492;-56
2022/03/25 10:54:51;;;;;;;18.90;7.60;;;17.80;53.60;;;;;;5002822;28;20132;-58
2022/03/25 10:57:17;;;;;;;33.38;7.85;;;17.80;53.30;;;;;;4995310;28;20286;-58
2022/03/25 10:59:57;;;;;;;18.67;6.93;;;17.90;53.30;;;;;;4993096;28;20521;-57
2022/03/25 11:02:23;;;;;;;17.23;7.82;;;18.00;52.90;;;;;;4992769;28;20048;-57
2022/03/25 11:04:50;;;;;;;19.25;7.18;;;18.10;52.60;;;;;;4992833;28;20549;-54
2022/03/25 11:07:17;;;;;;;22.88;9.30;;;18.00;51.60;;;;;;4992669;28;20110;-60
2022/03/25 11:09:44;;;;;;;17.25;7.05;;;17.80;51.90;;;;;;4992302;28;20109;-58
2022/03/25 11:12:11;;;;;;;20.55;7.25;;;17.80;52.60;;;;;;4992193;28;20034;-58
2022/03/25 11:14:36;;;;;;;20.00;6.55;;;17.60;53.50;;;;;;4992819;28;20453;-59
2022/03/25 11:17:04;;;;;;;16.45;6.63;;;17.50;53.90;;;;;;4991921;28;20050;-58
2022/03/25 11:19:29;;;;;;;16.98;6.60;;;17.50;53.00;;;;;;4988229;28;20018;-58
2022/03/25 11:21:57;;;;;;;16.77;6.40;;;17.20;54.50;;;;;;4992930;28;20563;-56
2022/03/25 11:24:34;;;;;;;21.92;7.13;;;17.30;55.20;;;;;;4989022;28;20113;-58
2022/03/25 11:27:05;;;;;;;18.63;7.25;;;17.40;53.10;;;;;;4991818;28;20033;-58
2022/03/25 11:29:32;;;;;;;14.88;5.53;;;17.40;54.10;;;;;;4992197;28;20034;-59
2022/03/25 11:32:07;;;;;;;15.18;6.00;;;17.20;54.50;;;;;;4987742;28;20038;-61
2022/03/25 11:34:38;;;;;;;15.52;6.35;;;17.30;53.30;;;;;;4984077;28;20022;-59
2022/03/25 11:37:32;;;;;;;22.08;7.60;;;17.50;54.40;;;;;;4981789;28;20034;-59
2022/03/25 11:40:16;;;;;;;21.05;6.85;;;17.40;52.70;;;;;;4991442;28;20042;-61
2022/03/25 11:42:45;;;;;;;19.63;7.18;;;17.50;54.20;;;;;;4989692;28;20069;-57
2022/03/25 11:45:20;;;;;;;17.73;7.55;;;17.60;54.50;;;;;;4991116;28;20038;-60
2022/03/25 11:48:07;;;;;;;23.40;7.50;;;17.50;54.20;;;;;;4990238;28;20026;-58
2022/03/25 11:50:40;;;;;;;17.65;6.82;;;17.50;53.90;;;;;;4979776;28;20030;-59
2022/03/25 11:53:12;;;;;;;20.77;6.50;;;17.50;53.80;;;;;;4986724;28;20030;-59
2022/03/25 11:56:04;;;;;;;14.20;6.30;;;17.40;52.60;;;;;;4990877;28;20022;-58
2022/03/25 11:58:55;;;;;;;17.73;7.05;;;17.30;52.60;;;;;;4991156;28;20108;-61
2022/03/25 12:01:22;;;;;;;16.00;6.07;;;17.30;53.40;;;;;;4991145;28;20022;-58
2022/03/25 12:03:52;;;;;;;16.73;7.68;;;17.40;53.50;;;;;;4992015;28;20027;-58
2022/03/25 12:06:22;;;;;;;20.48;6.95;;;17.30;52.40;;;;;;4991634;28;20417;-60
2022/03/25 12:09:06;;;;;;;14.07;7.47;;;17.40;53.80;;;;;;4991136;28;20030;-59
2022/03/25 12:11:58;;;;;;;17.35;7.47;;;17.40;51.60;;;;;;4989995;28;20553;-57
2022/03/25 12:14:31;;;;;;;29.50;8.00;;;17.30;51.80;;;;;;4990938;28;20031;-56
2022/03/25 12:17:03;;;;;;;18.30;7.90;;;17.30;53.10;;;;;;4992009;28;20022;-60
2022/03/25 12:19:28;;;;;;;16.02;7.55;;;17.20;52.00;;;;;;4992109;28;20525;-59
2022/03/25 12:21:59;;;;;;;24.15;7.55;;;17.20;50.90;;;;;;4991474;28;20069;-60
2022/03/25 12:24:25;;;;;;;25.42;7.20;;;17.30;51.50;;;;;;4991317;28;20034;-59
2022/03/25 12:26:57;;;;;;;23.45;8.07;;;17.20;51.20;;;;;;4990374;28;20080;-59
2022/03/25 12:29:34;;;;;;;24.35;7.60;;;17.20;52.00;;;;;;4985272;28;20023;-58
2022/03/25 12:32:02;;;;;;;15.25;6.75;;;17.10;51.60;;;;;;4982144;28;20510;-59
2022/03/25 12:34:52;;;;;;;16.70;6.38;;;17.20;52.60;;;;;;4986193;28;20028;-59
2022/03/25 12:37:47;;;;;;;16.95;7.85;;;17.20;52.80;;;;;;4972796;28;20015;-59
2022/03/25 12:40:16;;;;;;;15.48;7.78;;;17.20;53.30;;;;;;4977286;28;20026;-58
2022/03/25 12:42:42;;;;;;;24.45;8.48;;;17.20;51.20;;;;;;4990628;28;20081;-56